sensor_id;sensor_type;location;lat;lon;timestamp;P1;durP1;ratioP1;P2;durP2;ratioP2
8532;SDS011;4304;53.876;10.662;2022-11-09T00:01:37;1.77;;;1.13;;
8532;SDS011;4304;53.876;10.662;2022-11-09T00:04:03;2.13;;;1.40;;
8532;SDS011;4304;53.876;10.662;2022-11-09T00:06:29;3.38;;;1.35;;
8532;SDS011;4304;53.876;10.662;2022-11-09T00:08:55;5.35;;;1.50;;
8532;SDS011;4304;53.876;10.662;2022-11-09T00:11:21;1.63;;;1.40;;
8532;SDS011;4304;53.876;10.662;2022-11-09T00:13:46;2.72;;;1.13;;
8532;SDS011;4304;53.876;10.662;2022-11-09T00:16:13;1.45;;;1.30;;
8532;SDS011;4304;53.876;10.662;2022-11-09T00:18:41;3.53;;;1.60;;
8532;SDS011;4304;53.876;10.662;2022-11-09T00:21:06;1.75;;;1.20;;
8532;SDS011;4304;53.876;10.662;2022-11-09T00:23:33;1.48;;;1.20;;
8532;SDS011;4304;53.876;10.662;2022-11-09T00:26:02;2.53;;;1.52;;
8532;SDS011;4304;53.876;10.662;2022-11-09T00:28:29;3.17;;;1.38;;
8532;SDS011;4304;53.876;10.662;2022-11-09T00:31:01;1.52;;;1.25;;
8532;SDS011;4304;53.876;10.662;2022-11-09T00:33:28;3.33;;;1.17;;
8532;SDS011;4304;53.876;10.662;2022-11-09T00:35:53;1.85;;;1.33;;
8532;SDS011;4304;53.876;10.662;2022-11-09T00:38:19;2.75;;;1.17;;
8532;SDS011;4304;53.876;10.662;2022-11-09T00:40:44;7.07;;;1.42;;
8532;SDS011;4304;53.876;10.662;2022-11-09T00:43:09;2.97;;;1.15;;
8532;SDS011;4304;53.876;10.662;2022-11-09T00:45:35;2.17;;;1.25;;
8532;SDS011;4304;53.876;10.662;2022-11-09T00:48:00;2.08;;;1.20;;
8532;SDS011;4304;53.876;10.662;2022-11-09T00:50:26;5.72;;;1.40;;
8532;SDS011;4304;53.876;10.662;2022-11-09T00:52:51;1.85;;;1.10;;
8532;SDS011;4304;53.876;10.662;2022-11-09T00:55:16;3.50;;;1.40;;
8532;SDS011;4304;53.876;10.662;2022-11-09T00:57:42;2.22;;;1.35;;
8532;SDS011;4304;53.876;10.662;2022-11-09T01:00:07;2.20;;;1.25;;
8532;SDS011;4304;53.876;10.662;2022-11-09T01:02:32;2.50;;;1.25;;
8532;SDS011;4304;53.876;10.662;2022-11-09T01:04:59;2.75;;;1.30;;
8532;SDS011;4304;53.876;10.662;2022-11-09T01:07:24;1.30;;;1.20;;
8532;SDS011;4304;53.876;10.662;2022-11-09T01:09:50;2.83;;;1.45;;
8532;SDS011;4304;53.876;10.662;2022-11-09T01:12:15;3.55;;;1.60;;
8532;SDS011;4304;53.876;10.662;2022-11-09T01:14:40;3.30;;;1.60;;
8532;SDS011;4304;53.876;10.662;2022-11-09T01:17:05;1.95;;;1.40;;
8532;SDS011;4304;53.876;10.662;2022-11-09T01:19:30;1.90;;;1.55;;
8532;SDS011;4304;53.876;10.662;2022-11-09T01:21:56;1.65;;;1.35;;
8532;SDS011;4304;53.876;10.662;2022-11-09T01:24:21;2.03;;;1.25;;
8532;SDS011;4304;53.876;10.662;2022-11-09T01:26:46;3.17;;;1.33;;
8532;SDS011;4304;53.876;10.662;2022-11-09T01:29:17;2.33;;;1.60;;
8532;SDS011;4304;53.876;10.662;2022-11-09T01:31:43;2.10;;;1.25;;
8532;SDS011;4304;53.876;10.662;2022-11-09T01:34:08;1.42;;;1.30;;
8532;SDS011;4304;53.876;10.662;2022-11-09T01:36:33;1.23;;;1.13;;
8532;SDS011;4304;53.876;10.662;2022-11-09T01:38:59;2.28;;;1.50;;
8532;SDS011;4304;53.876;10.662;2022-11-09T01:41:25;3.08;;;1.33;;
8532;SDS011;4304;53.876;10.662;2022-11-09T01:46:33;2.47;;;1.30;;
8532;SDS011;4304;53.876;10.662;2022-11-09T01:49:03;5.40;;;1.45;;
8532;SDS011;4304;53.876;10.662;2022-11-09T01:51:33;4.60;;;1.70;;
8532;SDS011;4304;53.876;10.662;2022-11-09T01:54:03;1.20;;;1.10;;
8532;SDS011;4304;53.876;10.662;2022-11-09T01:56:33;1.70;;;1.38;;
8532;SDS011;4304;53.876;10.662;2022-11-09T01:59:02;2.47;;;1.30;;
8532;SDS011;4304;53.876;10.662;2022-11-09T02:01:58;3.15;;;1.60;;
8532;SDS011;4304;53.876;10.662;2022-11-09T02:04:26;3.38;;;1.48;;
8532;SDS011;4304;53.876;10.662;2022-11-09T02:06:56;3.70;;;1.40;;
8532;SDS011;4304;53.876;10.662;2022-11-09T02:09:32;2.47;;;1.30;;
8532;SDS011;4304;53.876;10.662;2022-11-09T02:12:05;1.85;;;1.15;;
8532;SDS011;4304;53.876;10.662;2022-11-09T02:14:31;3.17;;;1.33;;
8532;SDS011;4304;53.876;10.662;2022-11-09T02:16:58;3.35;;;1.10;;
8532;SDS011;4304;53.876;10.662;2022-11-09T02:19:23;3.33;;;1.20;;
8532;SDS011;4304;53.876;10.662;2022-11-09T02:21:48;2.53;;;1.40;;
8532;SDS011;4304;53.876;10.662;2022-11-09T02:24:14;5.60;;;1.40;;
8532;SDS011;4304;53.876;10.662;2022-11-09T02:26:49;1.83;;;1.50;;
8532;SDS011;4304;53.876;10.662;2022-11-09T02:29:19;1.95;;;1.45;;
8532;SDS011;4304;53.876;10.662;2022-11-09T02:31:51;1.95;;;1.40;;
8532;SDS011;4304;53.876;10.662;2022-11-09T02:34:19;1.73;;;1.20;;
8532;SDS011;4304;53.876;10.662;2022-11-09T02:36:45;3.08;;;1.40;;
8532;SDS011;4304;53.876;10.662;2022-11-09T02:39:11;2.45;;;1.48;;
8532;SDS011;4304;53.876;10.662;2022-11-09T02:41:42;5.10;;;1.63;;
8532;SDS011;4304;53.876;10.662;2022-11-09T02:44:10;3.75;;;1.52;;
8532;SDS011;4304;53.876;10.662;2022-11-09T02:46:36;2.78;;;1.23;;
8532;SDS011;4304;53.876;10.662;2022-11-09T02:49:02;4.90;;;1.67;;
8532;SDS011;4304;53.876;10.662;2022-11-09T02:51:28;1.45;;;1.20;;
8532;SDS011;4304;53.876;10.662;2022-11-09T02:53:53;3.92;;;1.40;;
8532;SDS011;4304;53.876;10.662;2022-11-09T02:56:19;6.75;;;1.55;;
8532;SDS011;4304;53.876;10.662;2022-11-09T02:58:44;1.50;;;1.20;;
8532;SDS011;4304;53.876;10.662;2022-11-09T03:01:09;3.85;;;1.30;;
8532;SDS011;4304;53.876;10.662;2022-11-09T03:03:34;3.70;;;1.40;;
8532;SDS011;4304;53.876;10.662;2022-11-09T03:06:00;1.38;;;1.20;;
8532;SDS011;4304;53.876;10.662;2022-11-09T03:08:25;2.70;;;1.40;;
8532;SDS011;4304;53.876;10.662;2022-11-09T03:10:50;3.72;;;1.50;;
8532;SDS011;4304;53.876;10.662;2022-11-09T03:13:15;3.05;;;1.33;;
8532;SDS011;4304;53.876;10.662;2022-11-09T03:15:41;1.95;;;1.30;;
8532;SDS011;4304;53.876;10.662;2022-11-09T03:18:06;1.45;;;1.35;;
8532;SDS011;4304;53.876;10.662;2022-11-09T03:20:31;3.03;;;1.38;;
8532;SDS011;4304;53.876;10.662;2022-11-09T03:22:57;2.45;;;1.42;;
8532;SDS011;4304;53.876;10.662;2022-11-09T03:25:23;2.08;;;1.55;;
8532;SDS011;4304;53.876;10.662;2022-11-09T03:27:49;3.50;;;1.42;;
8532;SDS011;4304;53.876;10.662;2022-11-09T03:30:15;4.70;;;1.45;;
8532;SDS011;4304;53.876;10.662;2022-11-09T03:32:40;6.13;;;1.33;;
8532;SDS011;4304;53.876;10.662;2022-11-09T03:35:05;3.20;;;1.42;;
8532;SDS011;4304;53.876;10.662;2022-11-09T03:37:31;4.13;;;1.60;;
8532;SDS011;4304;53.876;10.662;2022-11-09T03:39:56;3.83;;;1.67;;
8532;SDS011;4304;53.876;10.662;2022-11-09T03:42:21;3.88;;;1.48;;
8532;SDS011;4304;53.876;10.662;2022-11-09T03:44:46;2.22;;;1.15;;
8532;SDS011;4304;53.876;10.662;2022-11-09T03:47:11;6.43;;;1.58;;
8532;SDS011;4304;53.876;10.662;2022-11-09T03:49:37;3.20;;;1.52;;
8532;SDS011;4304;53.876;10.662;2022-11-09T03:52:02;2.33;;;1.25;;
8532;SDS011;4304;53.876;10.662;2022-11-09T03:54:27;2.25;;;1.13;;
8532;SDS011;4304;53.876;10.662;2022-11-09T03:56:52;2.70;;;1.35;;
8532;SDS011;4304;53.876;10.662;2022-11-09T03:59:18;2.00;;;1.40;;
8532;SDS011;4304;53.876;10.662;2022-11-09T04:01:43;1.88;;;1.20;;
8532;SDS011;4304;53.876;10.662;2022-11-09T04:04:08;3.65;;;1.45;;
8532;SDS011;4304;53.876;10.662;2022-11-09T04:06:33;2.33;;;1.38;;
8532;SDS011;4304;53.876;10.662;2022-11-09T04:08:59;3.22;;;1.30;;
8532;SDS011;4304;53.876;10.662;2022-11-09T04:11:24;5.47;;;1.30;;
8532;SDS011;4304;53.876;10.662;2022-11-09T04:13:49;2.63;;;1.52;;
8532;SDS011;4304;53.876;10.662;2022-11-09T04:16:14;2.08;;;1.30;;
8532;SDS011;4304;53.876;10.662;2022-11-09T04:18:39;2.67;;;1.35;;
8532;SDS011;4304;53.876;10.662;2022-11-09T04:21:05;2.50;;;1.48;;
8532;SDS011;4304;53.876;10.662;2022-11-09T04:23:30;2.05;;;1.30;;
8532;SDS011;4304;53.876;10.662;2022-11-09T04:25:56;3.55;;;1.38;;
8532;SDS011;4304;53.876;10.662;2022-11-09T04:28:22;1.45;;;1.30;;
8532;SDS011;4304;53.876;10.662;2022-11-09T04:30:47;2.65;;;1.63;;
8532;SDS011;4304;53.876;10.662;2022-11-09T04:33:12;4.22;;;1.48;;
8532;SDS011;4304;53.876;10.662;2022-11-09T04:35:44;4.35;;;1.77;;
8532;SDS011;4304;53.876;10.662;2022-11-09T04:38:10;2.25;;;1.40;;
8532;SDS011;4304;53.876;10.662;2022-11-09T04:40:37;1.98;;;1.35;;
8532;SDS011;4304;53.876;10.662;2022-11-09T04:43:03;3.28;;;1.20;;
8532;SDS011;4304;53.876;10.662;2022-11-09T04:45:31;1.83;;;1.38;;
8532;SDS011;4304;53.876;10.662;2022-11-09T04:47:58;2.88;;;1.77;;
8532;SDS011;4304;53.876;10.662;2022-11-09T04:50:28;3.75;;;1.85;;
8532;SDS011;4304;53.876;10.662;2022-11-09T04:52:54;6.47;;;1.50;;
8532;SDS011;4304;53.876;10.662;2022-11-09T04:55:20;1.65;;;1.27;;
8532;SDS011;4304;53.876;10.662;2022-11-09T04:57:45;3.50;;;1.63;;
8532;SDS011;4304;53.876;10.662;2022-11-09T05:00:11;1.90;;;1.40;;
8532;SDS011;4304;53.876;10.662;2022-11-09T05:02:36;2.63;;;1.40;;
8532;SDS011;4304;53.876;10.662;2022-11-09T05:05:01;2.45;;;1.40;;
8532;SDS011;4304;53.876;10.662;2022-11-09T05:07:28;2.65;;;1.50;;
8532;SDS011;4304;53.876;10.662;2022-11-09T05:09:53;1.88;;;1.40;;
8532;SDS011;4304;53.876;10.662;2022-11-09T05:12:18;1.67;;;1.20;;
8532;SDS011;4304;53.876;10.662;2022-11-09T05:14:44;2.30;;;1.27;;
8532;SDS011;4304;53.876;10.662;2022-11-09T05:17:09;1.77;;;1.50;;
8532;SDS011;4304;53.876;10.662;2022-11-09T05:19:34;5.65;;;1.70;;
8532;SDS011;4304;53.876;10.662;2022-11-09T05:21:59;2.53;;;1.55;;
8532;SDS011;4304;53.876;10.662;2022-11-09T05:24:24;1.90;;;1.25;;
8532;SDS011;4304;53.876;10.662;2022-11-09T05:26:50;1.95;;;1.45;;
8532;SDS011;4304;53.876;10.662;2022-11-09T05:29:15;2.50;;;1.35;;
8532;SDS011;4304;53.876;10.662;2022-11-09T05:31:40;1.98;;;1.15;;
8532;SDS011;4304;53.876;10.662;2022-11-09T05:34:06;2.03;;;1.40;;
8532;SDS011;4304;53.876;10.662;2022-11-09T05:36:36;4.93;;;1.40;;
8532;SDS011;4304;53.876;10.662;2022-11-09T05:39:01;3.10;;;1.42;;
8532;SDS011;4304;53.876;10.662;2022-11-09T05:41:26;2.38;;;1.20;;
8532;SDS011;4304;53.876;10.662;2022-11-09T05:43:52;4.47;;;1.63;;
8532;SDS011;4304;53.876;10.662;2022-11-09T05:46:17;1.52;;;1.10;;
8532;SDS011;4304;53.876;10.662;2022-11-09T05:48:43;2.72;;;1.33;;
8532;SDS011;4304;53.876;10.662;2022-11-09T05:51:11;6.22;;;1.60;;
8532;SDS011;4304;53.876;10.662;2022-11-09T05:53:37;3.60;;;1.40;;
8532;SDS011;4304;53.876;10.662;2022-11-09T05:56:07;2.65;;;1.30;;
8532;SDS011;4304;53.876;10.662;2022-11-09T05:58:34;6.43;;;1.33;;
8532;SDS011;4304;53.876;10.662;2022-11-09T06:00:59;3.63;;;1.50;;
8532;SDS011;4304;53.876;10.662;2022-11-09T06:03:24;2.10;;;1.50;;
8532;SDS011;4304;53.876;10.662;2022-11-09T06:05:50;2.67;;;1.50;;
8532;SDS011;4304;53.876;10.662;2022-11-09T06:08:15;1.63;;;1.20;;
8532;SDS011;4304;53.876;10.662;2022-11-09T06:10:40;3.50;;;1.50;;
8532;SDS011;4304;53.876;10.662;2022-11-09T06:13:06;1.85;;;1.45;;
8532;SDS011;4304;53.876;10.662;2022-11-09T06:15:31;1.75;;;1.20;;
8532;SDS011;4304;53.876;10.662;2022-11-09T06:17:57;2.60;;;1.75;;
8532;SDS011;4304;53.876;10.662;2022-11-09T06:20:22;2.13;;;1.45;;
8532;SDS011;4304;53.876;10.662;2022-11-09T06:23:00;3.92;;;1.40;;
8532;SDS011;4304;53.876;10.662;2022-11-09T06:25:26;3.38;;;1.33;;
8532;SDS011;4304;53.876;10.662;2022-11-09T06:27:52;2.35;;;1.50;;
8532;SDS011;4304;53.876;10.662;2022-11-09T06:30:18;1.95;;;1.42;;
8532;SDS011;4304;53.876;10.662;2022-11-09T06:32:43;2.33;;;1.40;;
8532;SDS011;4304;53.876;10.662;2022-11-09T06:35:09;3.00;;;1.40;;
8532;SDS011;4304;53.876;10.662;2022-11-09T06:37:34;1.98;;;1.40;;
8532;SDS011;4304;53.876;10.662;2022-11-09T06:39:59;2.95;;;1.60;;
8532;SDS011;4304;53.876;10.662;2022-11-09T06:42:25;2.42;;;1.38;;
8532;SDS011;4304;53.876;10.662;2022-11-09T06:44:50;1.85;;;1.40;;
8532;SDS011;4304;53.876;10.662;2022-11-09T06:47:15;2.38;;;1.20;;
8532;SDS011;4304;53.876;10.662;2022-11-09T06:49:40;2.45;;;1.58;;
8532;SDS011;4304;53.876;10.662;2022-11-09T06:52:06;2.88;;;1.42;;
8532;SDS011;4304;53.876;10.662;2022-11-09T06:54:31;2.15;;;1.20;;
8532;SDS011;4304;53.876;10.662;2022-11-09T06:56:57;4.60;;;1.73;;
8532;SDS011;4304;53.876;10.662;2022-11-09T06:59:22;2.42;;;1.52;;
8532;SDS011;4304;53.876;10.662;2022-11-09T07:01:47;2.85;;;1.25;;
8532;SDS011;4304;53.876;10.662;2022-11-09T07:04:13;4.78;;;1.20;;
8532;SDS011;4304;53.876;10.662;2022-11-09T07:06:39;3.55;;;1.33;;
8532;SDS011;4304;53.876;10.662;2022-11-09T07:09:05;4.80;;;1.30;;
8532;SDS011;4304;53.876;10.662;2022-11-09T07:11:30;3.67;;;1.50;;
8532;SDS011;4304;53.876;10.662;2022-11-09T07:13:55;2.25;;;1.50;;
8532;SDS011;4304;53.876;10.662;2022-11-09T07:16:20;6.50;;;1.80;;
8532;SDS011;4304;53.876;10.662;2022-11-09T07:18:46;3.05;;;1.38;;
8532;SDS011;4304;53.876;10.662;2022-11-09T07:21:11;2.42;;;1.30;;
8532;SDS011;4304;53.876;10.662;2022-11-09T07:23:37;3.10;;;1.30;;
8532;SDS011;4304;53.876;10.662;2022-11-09T07:26:03;2.70;;;1.15;;
8532;SDS011;4304;53.876;10.662;2022-11-09T07:28:30;2.90;;;1.60;;
8532;SDS011;4304;53.876;10.662;2022-11-09T07:30:59;4.95;;;1.40;;
8532;SDS011;4304;53.876;10.662;2022-11-09T07:33:25;2.97;;;1.30;;
8532;SDS011;4304;53.876;10.662;2022-11-09T07:35:50;3.38;;;1.10;;
8532;SDS011;4304;53.876;10.662;2022-11-09T07:38:16;4.50;;;1.23;;
8532;SDS011;4304;53.876;10.662;2022-11-09T07:40:42;4.28;;;1.38;;
8532;SDS011;4304;53.876;10.662;2022-11-09T07:43:08;4.10;;;1.42;;
8532;SDS011;4304;53.876;10.662;2022-11-09T07:45:34;6.65;;;1.38;;
8532;SDS011;4304;53.876;10.662;2022-11-09T07:48:00;2.42;;;1.08;;
8532;SDS011;4304;53.876;10.662;2022-11-09T07:50:31;2.10;;;1.20;;
8532;SDS011;4304;53.876;10.662;2022-11-09T07:52:58;2.10;;;1.20;;
8532;SDS011;4304;53.876;10.662;2022-11-09T07:55:24;1.40;;;1.30;;
8532;SDS011;4304;53.876;10.662;2022-11-09T07:57:55;1.55;;;1.15;;
8532;SDS011;4304;53.876;10.662;2022-11-09T08:00:21;2.35;;;1.70;;
8532;SDS011;4304;53.876;10.662;2022-11-09T08:02:49;1.88;;;1.20;;
8532;SDS011;4304;53.876;10.662;2022-11-09T08:05:14;4.72;;;1.15;;
8532;SDS011;4304;53.876;10.662;2022-11-09T08:07:40;1.40;;;1.08;;
8532;SDS011;4304;53.876;10.662;2022-11-09T08:10:05;2.63;;;1.60;;
8532;SDS011;4304;53.876;10.662;2022-11-09T08:12:30;2.22;;;1.17;;
8532;SDS011;4304;53.876;10.662;2022-11-09T08:14:56;2.72;;;1.35;;
8532;SDS011;4304;53.876;10.662;2022-11-09T08:17:21;1.50;;;1.23;;
8532;SDS011;4304;53.876;10.662;2022-11-09T08:19:46;2.22;;;1.25;;
8532;SDS011;4304;53.876;10.662;2022-11-09T08:22:11;2.15;;;1.00;;
8532;SDS011;4304;53.876;10.662;2022-11-09T08:24:37;1.65;;;1.23;;
8532;SDS011;4304;53.876;10.662;2022-11-09T08:27:02;4.50;;;1.50;;
8532;SDS011;4304;53.876;10.662;2022-11-09T08:29:27;3.10;;;1.38;;
8532;SDS011;4304;53.876;10.662;2022-11-09T08:31:52;3.25;;;1.42;;
8532;SDS011;4304;53.876;10.662;2022-11-09T08:34:17;3.72;;;1.38;;
8532;SDS011;4304;53.876;10.662;2022-11-09T08:36:43;2.40;;;1.35;;
8532;SDS011;4304;53.876;10.662;2022-11-09T08:39:08;2.70;;;1.40;;
8532;SDS011;4304;53.876;10.662;2022-11-09T08:41:33;2.45;;;1.42;;
8532;SDS011;4304;53.876;10.662;2022-11-09T08:43:58;3.72;;;1.27;;
8532;SDS011;4304;53.876;10.662;2022-11-09T08:46:23;2.60;;;1.30;;
8532;SDS011;4304;53.876;10.662;2022-11-09T08:48:49;1.40;;;1.05;;
8532;SDS011;4304;53.876;10.662;2022-11-09T08:51:14;1.67;;;1.20;;
8532;SDS011;4304;53.876;10.662;2022-11-09T08:53:39;2.30;;;1.33;;
8532;SDS011;4304;53.876;10.662;2022-11-09T08:56:05;1.60;;;1.17;;
8532;SDS011;4304;53.876;10.662;2022-11-09T08:58:31;4.95;;;1.23;;
8532;SDS011;4304;53.876;10.662;2022-11-09T09:00:56;4.53;;;1.25;;
8532;SDS011;4304;53.876;10.662;2022-11-09T09:03:21;1.73;;;1.15;;
8532;SDS011;4304;53.876;10.662;2022-11-09T09:05:46;2.88;;;1.40;;
8532;SDS011;4304;53.876;10.662;2022-11-09T09:08:12;3.10;;;1.30;;
8532;SDS011;4304;53.876;10.662;2022-11-09T09:10:37;3.28;;;1.42;;
8532;SDS011;4304;53.876;10.662;2022-11-09T09:13:03;2.25;;;1.25;;
8532;SDS011;4304;53.876;10.662;2022-11-09T09:15:28;1.33;;;1.05;;
8532;SDS011;4304;53.876;10.662;2022-11-09T09:17:53;4.53;;;1.30;;
8532;SDS011;4304;53.876;10.662;2022-11-09T09:20:19;3.20;;;1.20;;
8532;SDS011;4304;53.876;10.662;2022-11-09T09:22:44;8.80;;;1.55;;
8532;SDS011;4304;53.876;10.662;2022-11-09T09:25:09;3.80;;;1.23;;
8532;SDS011;4304;53.876;10.662;2022-11-09T09:27:35;2.35;;;1.05;;
8532;SDS011;4304;53.876;10.662;2022-11-09T09:30:00;2.55;;;1.30;;
8532;SDS011;4304;53.876;10.662;2022-11-09T09:32:25;2.50;;;1.25;;
8532;SDS011;4304;53.876;10.662;2022-11-09T09:34:51;1.85;;;1.02;;
8532;SDS011;4304;53.876;10.662;2022-11-09T09:37:16;1.10;;;1.00;;
8532;SDS011;4304;53.876;10.662;2022-11-09T09:39:41;4.25;;;1.27;;
8532;SDS011;4304;53.876;10.662;2022-11-09T09:42:07;2.90;;;1.17;;
8532;SDS011;4304;53.876;10.662;2022-11-09T09:44:48;4.30;;;1.10;;
8532;SDS011;4304;53.876;10.662;2022-11-09T09:47:19;1.02;;;0.93;;
8532;SDS011;4304;53.876;10.662;2022-11-09T09:49:46;4.60;;;1.20;;
8532;SDS011;4304;53.876;10.662;2022-11-09T09:55:10;2.03;;;1.38;;
8532;SDS011;4304;53.876;10.662;2022-11-09T09:57:38;4.78;;;1.08;;
8532;SDS011;4304;53.876;10.662;2022-11-09T10:00:06;1.75;;;1.13;;
8532;SDS011;4304;53.876;10.662;2022-11-09T10:02:45;2.28;;;1.08;;
8532;SDS011;4304;53.876;10.662;2022-11-09T10:05:11;1.55;;;1.30;;
8532;SDS011;4304;53.876;10.662;2022-11-09T10:10:39;6.07;;;1.55;;
8532;SDS011;4304;53.876;10.662;2022-11-09T10:21:45;5.65;;;1.27;;
8532;SDS011;4304;53.876;10.662;2022-11-09T10:24:38;5.18;;;1.20;;
8532;SDS011;4304;53.876;10.662;2022-11-09T10:27:33;5.65;;;1.67;;
8532;SDS011;4304;53.876;10.662;2022-11-09T10:29:58;9.30;;;1.40;;
8532;SDS011;4304;53.876;10.662;2022-11-09T10:32:26;2.83;;;1.05;;
8532;SDS011;4304;53.876;10.662;2022-11-09T10:34:55;7.47;;;1.10;;
8532;SDS011;4304;53.876;10.662;2022-11-09T10:37:27;3.90;;;1.25;;
8532;SDS011;4304;53.876;10.662;2022-11-09T10:39:55;4.20;;;1.40;;
8532;SDS011;4304;53.876;10.662;2022-11-09T10:42:24;6.60;;;1.63;;
8532;SDS011;4304;53.876;10.662;2022-11-09T10:44:50;2.35;;;1.10;;
8532;SDS011;4304;53.876;10.662;2022-11-09T10:47:15;4.25;;;1.50;;
8532;SDS011;4304;53.876;10.662;2022-11-09T10:49:41;2.53;;;1.20;;
8532;SDS011;4304;53.876;10.662;2022-11-09T10:52:28;4.00;;;1.20;;
8532;SDS011;4304;53.876;10.662;2022-11-09T10:58:00;2.92;;;1.27;;
8532;SDS011;4304;53.876;10.662;2022-11-09T11:00:34;4.18;;;1.50;;
8532;SDS011;4304;53.876;10.662;2022-11-09T11:03:08;3.28;;;1.20;;
8532;SDS011;4304;53.876;10.662;2022-11-09T11:05:35;3.88;;;1.60;;
8532;SDS011;4304;53.876;10.662;2022-11-09T11:08:11;5.13;;;1.60;;
8532;SDS011;4304;53.876;10.662;2022-11-09T11:10:44;3.28;;;1.30;;
8532;SDS011;4304;53.876;10.662;2022-11-09T11:15:37;2.80;;;1.20;;
8532;SDS011;4304;53.876;10.662;2022-11-09T11:18:12;3.08;;;1.13;;
8532;SDS011;4304;53.876;10.662;2022-11-09T11:20:41;2.05;;;1.20;;
8532;SDS011;4304;53.876;10.662;2022-11-09T11:23:17;5.93;;;1.40;;
8532;SDS011;4304;53.876;10.662;2022-11-09T11:28:20;3.33;;;1.30;;
8532;SDS011;4304;53.876;10.662;2022-11-09T11:30:49;3.75;;;1.42;;
8532;SDS011;4304;53.876;10.662;2022-11-09T11:33:15;2.78;;;1.13;;
8532;SDS011;4304;53.876;10.662;2022-11-09T11:35:42;3.28;;;1.50;;
8532;SDS011;4304;53.876;10.662;2022-11-09T11:43:55;4.68;;;1.17;;
8532;SDS011;4304;53.876;10.662;2022-11-09T11:54:47;7.07;;;1.33;;
8532;SDS011;4304;53.876;10.662;2022-11-09T12:00:12;2.63;;;0.98;;
8532;SDS011;4304;53.876;10.662;2022-11-09T12:02:50;2.35;;;1.13;;
8532;SDS011;4304;53.876;10.662;2022-11-09T12:11:32;2.05;;;1.35;;
8532;SDS011;4304;53.876;10.662;2022-11-09T12:14:24;4.13;;;1.60;;
8532;SDS011;4304;53.876;10.662;2022-11-09T12:20:21;9.25;;;1.10;;
8532;SDS011;4304;53.876;10.662;2022-11-09T12:26:01;3.00;;;1.20;;
8532;SDS011;4304;53.876;10.662;2022-11-09T12:29:00;5.20;;;1.50;;
8532;SDS011;4304;53.876;10.662;2022-11-09T12:39:24;5.57;;;1.35;;
8532;SDS011;4304;53.876;10.662;2022-11-09T12:41:54;6.82;;;1.23;;
8532;SDS011;4304;53.876;10.662;2022-11-09T12:44:26;4.88;;;1.50;;
8532;SDS011;4304;53.876;10.662;2022-11-09T12:47:02;3.03;;;1.20;;
8532;SDS011;4304;53.876;10.662;2022-11-09T12:49:33;3.97;;;1.23;;
8532;SDS011;4304;53.876;10.662;2022-11-09T12:52:04;4.93;;;1.40;;
8532;SDS011;4304;53.876;10.662;2022-11-09T12:54:31;4.20;;;1.48;;
8532;SDS011;4304;53.876;10.662;2022-11-09T12:57:00;6.03;;;1.48;;
8532;SDS011;4304;53.876;10.662;2022-11-09T13:01:57;5.60;;;1.35;;
8532;SDS011;4304;53.876;10.662;2022-11-09T13:04:24;4.55;;;1.30;;
8532;SDS011;4304;53.876;10.662;2022-11-09T13:09:27;5.05;;;1.38;;
8532;SDS011;4304;53.876;10.662;2022-11-09T13:11:53;8.55;;;1.40;;
8532;SDS011;4304;53.876;10.662;2022-11-09T13:16:53;4.80;;;1.17;;
8532;SDS011;4304;53.876;10.662;2022-11-09T13:22:00;7.43;;;1.35;;
8532;SDS011;4304;53.876;10.662;2022-11-09T13:26:56;5.72;;;1.45;;
8532;SDS011;4304;53.876;10.662;2022-11-09T13:29:24;6.28;;;1.10;;
8532;SDS011;4304;53.876;10.662;2022-11-09T13:48:00;6.25;;;1.58;;
8532;SDS011;4304;53.876;10.662;2022-11-09T13:50:27;3.22;;;1.20;;
8532;SDS011;4304;53.876;10.662;2022-11-09T13:52:57;5.03;;;1.20;;
8532;SDS011;4304;53.876;10.662;2022-11-09T13:57:52;5.65;;;1.20;;
8532;SDS011;4304;53.876;10.662;2022-11-09T14:00:20;3.28;;;1.10;;
8532;SDS011;4304;53.876;10.662;2022-11-09T14:03:15;3.72;;;1.35;;
8532;SDS011;4304;53.876;10.662;2022-11-09T14:06:04;5.10;;;1.20;;
8532;SDS011;4304;53.876;10.662;2022-11-09T14:08:33;4.70;;;1.30;;
8532;SDS011;4304;53.876;10.662;2022-11-09T14:16:32;3.60;;;1.13;;
8532;SDS011;4304;53.876;10.662;2022-11-09T14:21:46;4.47;;;1.30;;
8532;SDS011;4304;53.876;10.662;2022-11-09T14:24:30;2.83;;;1.40;;
8532;SDS011;4304;53.876;10.662;2022-11-09T14:29:34;4.00;;;1.35;;
8532;SDS011;4304;53.876;10.662;2022-11-09T14:32:02;3.10;;;1.42;;
8532;SDS011;4304;53.876;10.662;2022-11-09T14:34:47;3.47;;;1.48;;
8532;SDS011;4304;53.876;10.662;2022-11-09T14:37:12;4.68;;;1.73;;
8532;SDS011;4304;53.876;10.662;2022-11-09T14:39:38;4.43;;;1.27;;
8532;SDS011;4304;53.876;10.662;2022-11-09T14:42:07;3.28;;;1.50;;
8532;SDS011;4304;53.876;10.662;2022-11-09T14:44:36;6.30;;;1.40;;
8532;SDS011;4304;53.876;10.662;2022-11-09T14:47:49;3.55;;;1.38;;
8532;SDS011;4304;53.876;10.662;2022-11-09T14:49:56;3.28;;;1.23;;
8532;SDS011;4304;53.876;10.662;2022-11-09T14:52:27;3.20;;;1.42;;
8532;SDS011;4304;53.876;10.662;2022-11-09T14:54:53;2.95;;;1.27;;
8532;SDS011;4304;53.876;10.662;2022-11-09T14:57:19;7.38;;;1.40;;
8532;SDS011;4304;53.876;10.662;2022-11-09T14:59:47;6.93;;;1.55;;
8532;SDS011;4304;53.876;10.662;2022-11-09T15:02:16;2.15;;;1.30;;
8532;SDS011;4304;53.876;10.662;2022-11-09T15:07:53;4.95;;;1.83;;
8532;SDS011;4304;53.876;10.662;2022-11-09T15:10:19;9.05;;;1.95;;
8532;SDS011;4304;53.876;10.662;2022-11-09T15:12:48;3.67;;;1.50;;
8532;SDS011;4304;53.876;10.662;2022-11-09T15:15:18;6.22;;;1.70;;
8532;SDS011;4304;53.876;10.662;2022-11-09T15:17:45;4.72;;;1.65;;
8532;SDS011;4304;53.876;10.662;2022-11-09T15:30:37;7.20;;;1.60;;
8532;SDS011;4304;53.876;10.662;2022-11-09T15:35:55;2.50;;;1.50;;
8532;SDS011;4304;53.876;10.662;2022-11-09T15:38:33;3.55;;;1.70;;
8532;SDS011;4304;53.876;10.662;2022-11-09T15:41:17;4.88;;;1.30;;
8532;SDS011;4304;53.876;10.662;2022-11-09T15:43:43;7.28;;;1.80;;
8532;SDS011;4304;53.876;10.662;2022-11-09T15:46:12;3.67;;;1.67;;
8532;SDS011;4304;53.876;10.662;2022-11-09T15:48:39;8.77;;;1.50;;
8532;SDS011;4304;53.876;10.662;2022-11-09T15:51:04;5.10;;;1.52;;
8532;SDS011;4304;53.876;10.662;2022-11-09T15:53:30;9.07;;;1.95;;
8532;SDS011;4304;53.876;10.662;2022-11-09T15:55:55;6.30;;;1.85;;
8532;SDS011;4304;53.876;10.662;2022-11-09T15:58:20;5.00;;;1.83;;
8532;SDS011;4304;53.876;10.662;2022-11-09T16:00:46;4.15;;;2.05;;
8532;SDS011;4304;53.876;10.662;2022-11-09T16:03:11;4.85;;;1.67;;
8532;SDS011;4304;53.876;10.662;2022-11-09T16:05:37;6.57;;;1.63;;
8532;SDS011;4304;53.876;10.662;2022-11-09T16:08:02;2.92;;;1.58;;
8532;SDS011;4304;53.876;10.662;2022-11-09T16:10:28;8.35;;;2.13;;
8532;SDS011;4304;53.876;10.662;2022-11-09T16:12:53;4.38;;;1.73;;
8532;SDS011;4304;53.876;10.662;2022-11-09T16:15:19;7.93;;;1.90;;
8532;SDS011;4304;53.876;10.662;2022-11-09T16:17:44;4.00;;;2.63;;
8532;SDS011;4304;53.876;10.662;2022-11-09T16:20:09;7.03;;;2.65;;
8532;SDS011;4304;53.876;10.662;2022-11-09T16:22:35;3.30;;;1.88;;
8532;SDS011;4304;53.876;10.662;2022-11-09T16:25:00;4.28;;;1.70;;
8532;SDS011;4304;53.876;10.662;2022-11-09T16:27:26;6.47;;;1.88;;
8532;SDS011;4304;53.876;10.662;2022-11-09T16:29:52;6.20;;;2.20;;
8532;SDS011;4304;53.876;10.662;2022-11-09T16:32:18;5.60;;;2.10;;
8532;SDS011;4304;53.876;10.662;2022-11-09T16:34:43;3.67;;;2.13;;
8532;SDS011;4304;53.876;10.662;2022-11-09T16:37:08;3.08;;;2.20;;
8532;SDS011;4304;53.876;10.662;2022-11-09T16:39:34;4.35;;;2.10;;
8532;SDS011;4304;53.876;10.662;2022-11-09T16:42:03;3.13;;;1.98;;
8532;SDS011;4304;53.876;10.662;2022-11-09T16:44:31;3.03;;;1.85;;
8532;SDS011;4304;53.876;10.662;2022-11-09T16:46:58;7.13;;;2.13;;
8532;SDS011;4304;53.876;10.662;2022-11-09T16:49:26;5.10;;;1.90;;
8532;SDS011;4304;53.876;10.662;2022-11-09T16:51:52;5.07;;;2.08;;
8532;SDS011;4304;53.876;10.662;2022-11-09T16:54:17;3.95;;;1.85;;
8532;SDS011;4304;53.876;10.662;2022-11-09T16:56:42;7.47;;;2.40;;
8532;SDS011;4304;53.876;10.662;2022-11-09T16:59:08;7.43;;;2.17;;
8532;SDS011;4304;53.876;10.662;2022-11-09T17:01:33;3.08;;;2.00;;
8532;SDS011;4304;53.876;10.662;2022-11-09T17:03:58;5.15;;;2.28;;